ESNK/KRF METAR and TAF weather

Enter ICAO airport designator
Station Type Date Time Source
ESNK METAR 2020/07/07 00:20 UTC NOAA

ESNK 070020Z AUTO 31009KT 9999 OVC016/// 11/09 Q0992


Station Type Date Time Source
ESNK Decoded METAR 2020/07/07 00:20 UTC NOAA

Kramfors Flygplats, Sweden (ESNK) 63-03N 017-46E 19M
Jul 06, 2020 - 08:20 PM EDT / 2020.07.07 0020 UTC
Wind: from the NW (310 degrees) at 10 MPH (9 KT):0
Visibility: greater than 7 mile(s):0
Sky conditions: overcast
Temperature: 51 F (11 C)
Dew Point: 48 F (9 C)
Relative Humidity: 87%
Pressure (altimeter): 29.29 in. Hg (0992 hPa)
ob: ESNK 070020Z AUTO 31009KT 9999 OVC016/// 11/09 Q0992
cycle: 0

Station Type Date Time Source
ESNK TAF 2017/12/15 06:00 UTC NOAA

TAF
AMD ESNK 150654Z 1506/1521 35005KT 6000 -SN BKN016
TEMPO 1506/1521 2000 SN SG VV009

Example: see airport list